Flugplatz Eichstätt

Für EDPE sind keine METAR/TAF Berichte vorhanden.
Es werden die Flugwettermeldungen vom Flugplatz Neuburg Airport in 18 km Entfernung angezeigt.

Bericht für ETSN

vom 25.10. um 15:20 UTC

Wind 2 kt aus 160°

Sichtweite 10 km oder mehr

aufgebrochene Bewölkung in 14000 ft

aufgebrochene Bewölkung in 18000 ft

Temperatur 8.0°C

Taupunkt 5.0°C

Luftfeuchtigkeit 81%

Luftdruck 1021 hPa

ETSN 251520Z 16002KT 9999 BKN140 BKN180 08/05 Q1021 BLU

Prognose für ETSN

vom 25.10. um 13:22 UTC

Zwischen 14:00 UTC und 19:00 UTC

variable Windrichtung mit 3 kt

Sichtweite 10 km oder mehr

keine signifikanten Wettererscheinungen

gering bewölkt in 14000 ft

aufgebrochene Bewölkung in 17000 ft


Zwischen 19:00 und 20:00 UTC übergehend zu

variable Windrichtung mit 3 kt

Sichtweite 2000 m

Nebelschwaden

aufgelockert bewölkt in 14000 ft


Zwischen 20:00 und 22:00 UTC übergehend zu

variable Windrichtung mit 2 kt

Sichtweite 500 m

Nebel

TAF ETSN 251322Z 2514/2523 VRB03KT 9999 NSW FEW140 BKN170 BECMG 2519/2520 VRB03KT 2000 BCFG SCT140 BECMG 2520/2522 VRB02KT 0500 FG VV001 BY ETGL
Impressum